sensor_id;sensor_type;location;lat;lon;timestamp;P1;durP1;ratioP1;P2;durP2;ratioP2
30398;SDS011;17195;50.838;7.214;2022-11-20T00:01:09;16.83;;;11.52;;
30398;SDS011;17195;50.838;7.214;2022-11-20T00:03:40;17.13;;;11.88;;
30398;SDS011;17195;50.838;7.214;2022-11-20T00:06:08;17.85;;;11.70;;
30398;SDS011;17195;50.838;7.214;2022-11-20T00:08:38;20.77;;;12.82;;
30398;SDS011;17195;50.838;7.214;2022-11-20T00:11:05;17.55;;;11.27;;
30398;SDS011;17195;50.838;7.214;2022-11-20T00:13:32;16.77;;;11.35;;
30398;SDS011;17195;50.838;7.214;2022-11-20T00:15:58;20.15;;;12.23;;
30398;SDS011;17195;50.838;7.214;2022-11-20T00:18:25;18.35;;;11.95;;
30398;SDS011;17195;50.838;7.214;2022-11-20T00:20:51;18.13;;;12.15;;
30398;SDS011;17195;50.838;7.214;2022-11-20T00:23:17;19.90;;;12.82;;
30398;SDS011;17195;50.838;7.214;2022-11-20T00:25:43;16.98;;;11.65;;
30398;SDS011;17195;50.838;7.214;2022-11-20T00:28:08;17.52;;;11.40;;
30398;SDS011;17195;50.838;7.214;2022-11-20T00:30:33;18.05;;;11.35;;
30398;SDS011;17195;50.838;7.214;2022-11-20T00:32:59;17.88;;;12.35;;
30398;SDS011;17195;50.838;7.214;2022-11-20T00:35:25;16.70;;;11.45;;
30398;SDS011;17195;50.838;7.214;2022-11-20T00:37:50;15.80;;;11.02;;
30398;SDS011;17195;50.838;7.214;2022-11-20T00:40:16;16.45;;;10.57;;
30398;SDS011;17195;50.838;7.214;2022-11-20T00:42:41;18.77;;;11.35;;
30398;SDS011;17195;50.838;7.214;2022-11-20T00:45:07;16.63;;;11.73;;
30398;SDS011;17195;50.838;7.214;2022-11-20T00:47:32;16.90;;;11.38;;
30398;SDS011;17195;50.838;7.214;2022-11-20T00:49:58;17.08;;;11.20;;
30398;SDS011;17195;50.838;7.214;2022-11-20T00:52:23;16.33;;;10.98;;
30398;SDS011;17195;50.838;7.214;2022-11-20T00:54:49;16.08;;;11.00;;
30398;SDS011;17195;50.838;7.214;2022-11-20T00:57:14;16.10;;;11.18;;
30398;SDS011;17195;50.838;7.214;2022-11-20T00:59:40;18.73;;;12.30;;
30398;SDS011;17195;50.838;7.214;2022-11-20T01:02:05;16.50;;;11.15;;
30398;SDS011;17195;50.838;7.214;2022-11-20T01:04:31;17.88;;;11.63;;
30398;SDS011;17195;50.838;7.214;2022-11-20T01:06:56;16.60;;;11.35;;
30398;SDS011;17195;50.838;7.214;2022-11-20T01:09:22;17.05;;;11.57;;
30398;SDS011;17195;50.838;7.214;2022-11-20T01:11:47;17.95;;;11.90;;
30398;SDS011;17195;50.838;7.214;2022-11-20T01:14:14;16.15;;;11.27;;
30398;SDS011;17195;50.838;7.214;2022-11-20T01:16:43;16.00;;;10.55;;
30398;SDS011;17195;50.838;7.214;2022-11-20T01:19:13;17.02;;;11.43;;
30398;SDS011;17195;50.838;7.214;2022-11-20T01:21:41;16.65;;;10.98;;
30398;SDS011;17195;50.838;7.214;2022-11-20T01:24:08;18.55;;;11.57;;
30398;SDS011;17195;50.838;7.214;2022-11-20T01:26:37;17.35;;;11.13;;
30398;SDS011;17195;50.838;7.214;2022-11-20T01:29:03;17.13;;;11.35;;
30398;SDS011;17195;50.838;7.214;2022-11-20T01:31:31;18.33;;;11.80;;
30398;SDS011;17195;50.838;7.214;2022-11-20T01:34:00;17.00;;;11.73;;
30398;SDS011;17195;50.838;7.214;2022-11-20T01:36:28;18.08;;;12.27;;
30398;SDS011;17195;50.838;7.214;2022-11-20T01:38:55;17.15;;;11.48;;
30398;SDS011;17195;50.838;7.214;2022-11-20T01:41:23;17.73;;;11.00;;
30398;SDS011;17195;50.838;7.214;2022-11-20T01:46:35;17.10;;;10.80;;
30398;SDS011;17195;50.838;7.214;2022-11-20T01:49:17;21.42;;;12.25;;
30398;SDS011;17195;50.838;7.214;2022-11-20T01:51:50;16.27;;;10.77;;
30398;SDS011;17195;50.838;7.214;2022-11-20T01:54:27;19.60;;;11.57;;
30398;SDS011;17195;50.838;7.214;2022-11-20T01:57:24;16.40;;;10.73;;
30398;SDS011;17195;50.838;7.214;2022-11-20T01:59:53;20.02;;;11.80;;
30398;SDS011;17195;50.838;7.214;2022-11-20T02:02:24;18.02;;;11.63;;
30398;SDS011;17195;50.838;7.214;2022-11-20T02:04:51;18.73;;;11.43;;
30398;SDS011;17195;50.838;7.214;2022-11-20T02:07:22;18.77;;;11.75;;
30398;SDS011;17195;50.838;7.214;2022-11-20T02:09:48;18.75;;;12.63;;
30398;SDS011;17195;50.838;7.214;2022-11-20T02:12:15;16.38;;;11.30;;
30398;SDS011;17195;50.838;7.214;2022-11-20T02:15:13;16.23;;;11.32;;
30398;SDS011;17195;50.838;7.214;2022-11-20T02:17:38;16.65;;;11.25;;
30398;SDS011;17195;50.838;7.214;2022-11-20T02:20:04;17.13;;;11.48;;
30398;SDS011;17195;50.838;7.214;2022-11-20T02:22:33;16.45;;;11.40;;
30398;SDS011;17195;50.838;7.214;2022-11-20T02:25:13;18.65;;;10.70;;
30398;SDS011;17195;50.838;7.214;2022-11-20T02:27:39;17.60;;;11.70;;
30398;SDS011;17195;50.838;7.214;2022-11-20T02:30:05;17.15;;;11.18;;
30398;SDS011;17195;50.838;7.214;2022-11-20T02:32:36;17.10;;;11.50;;
30398;SDS011;17195;50.838;7.214;2022-11-20T02:35:06;17.45;;;11.13;;
30398;SDS011;17195;50.838;7.214;2022-11-20T02:37:33;15.82;;;10.23;;
30398;SDS011;17195;50.838;7.214;2022-11-20T02:40:02;16.60;;;10.65;;
30398;SDS011;17195;50.838;7.214;2022-11-20T02:42:28;18.23;;;11.30;;
30398;SDS011;17195;50.838;7.214;2022-11-20T02:44:53;15.93;;;10.40;;
30398;SDS011;17195;50.838;7.214;2022-11-20T02:47:19;17.25;;;11.43;;
30398;SDS011;17195;50.838;7.214;2022-11-20T02:49:44;18.02;;;11.95;;
30398;SDS011;17195;50.838;7.214;2022-11-20T02:52:10;17.30;;;11.65;;
30398;SDS011;17195;50.838;7.214;2022-11-20T02:54:35;19.20;;;12.70;;
30398;SDS011;17195;50.838;7.214;2022-11-20T02:57:01;19.30;;;11.90;;
30398;SDS011;17195;50.838;7.214;2022-11-20T02:59:26;18.15;;;11.27;;
30398;SDS011;17195;50.838;7.214;2022-11-20T03:01:52;17.08;;;11.60;;
30398;SDS011;17195;50.838;7.214;2022-11-20T03:04:17;17.88;;;12.00;;
30398;SDS011;17195;50.838;7.214;2022-11-20T03:06:43;18.20;;;11.45;;
30398;SDS011;17195;50.838;7.214;2022-11-20T03:09:08;19.38;;;11.98;;
30398;SDS011;17195;50.838;7.214;2022-11-20T03:11:34;18.63;;;11.98;;
30398;SDS011;17195;50.838;7.214;2022-11-20T03:14:03;18.17;;;10.90;;
30398;SDS011;17195;50.838;7.214;2022-11-20T03:16:30;19.50;;;11.95;;
30398;SDS011;17195;50.838;7.214;2022-11-20T03:18:56;18.08;;;11.85;;
30398;SDS011;17195;50.838;7.214;2022-11-20T03:21:22;15.95;;;11.23;;
30398;SDS011;17195;50.838;7.214;2022-11-20T03:23:47;18.40;;;11.90;;
30398;SDS011;17195;50.838;7.214;2022-11-20T03:26:20;20.85;;;13.20;;
30398;SDS011;17195;50.838;7.214;2022-11-20T03:28:51;18.95;;;11.75;;
30398;SDS011;17195;50.838;7.214;2022-11-20T03:31:19;19.95;;;11.90;;
30398;SDS011;17195;50.838;7.214;2022-11-20T03:33:47;19.92;;;12.05;;
30398;SDS011;17195;50.838;7.214;2022-11-20T03:36:13;20.05;;;12.73;;
30398;SDS011;17195;50.838;7.214;2022-11-20T03:38:40;17.58;;;10.68;;
30398;SDS011;17195;50.838;7.214;2022-11-20T03:41:09;20.05;;;12.13;;
30398;SDS011;17195;50.838;7.214;2022-11-20T03:43:36;20.00;;;12.00;;
30398;SDS011;17195;50.838;7.214;2022-11-20T03:46:02;17.33;;;11.45;;
30398;SDS011;17195;50.838;7.214;2022-11-20T03:48:28;18.70;;;12.07;;
30398;SDS011;17195;50.838;7.214;2022-11-20T03:53:42;19.83;;;12.52;;
30398;SDS011;17195;50.838;7.214;2022-11-20T03:56:09;20.67;;;11.98;;
30398;SDS011;17195;50.838;7.214;2022-11-20T03:58:36;18.30;;;11.75;;
30398;SDS011;17195;50.838;7.214;2022-11-20T04:01:13;20.90;;;12.77;;
30398;SDS011;17195;50.838;7.214;2022-11-20T04:03:43;17.92;;;11.02;;
30398;SDS011;17195;50.838;7.214;2022-11-20T04:06:23;24.90;;;12.15;;
30398;SDS011;17195;50.838;7.214;2022-11-20T04:08:51;17.65;;;11.30;;
30398;SDS011;17195;50.838;7.214;2022-11-20T04:11:24;19.52;;;12.50;;
30398;SDS011;17195;50.838;7.214;2022-11-20T04:13:58;19.23;;;12.25;;
30398;SDS011;17195;50.838;7.214;2022-11-20T04:16:25;17.90;;;11.57;;
30398;SDS011;17195;50.838;7.214;2022-11-20T04:18:53;19.95;;;12.57;;
30398;SDS011;17195;50.838;7.214;2022-11-20T04:21:20;20.67;;;12.80;;
30398;SDS011;17195;50.838;7.214;2022-11-20T04:23:46;18.70;;;12.18;;
30398;SDS011;17195;50.838;7.214;2022-11-20T04:26:11;18.20;;;11.45;;
30398;SDS011;17195;50.838;7.214;2022-11-20T04:28:37;21.50;;;12.95;;
30398;SDS011;17195;50.838;7.214;2022-11-20T04:31:10;18.17;;;11.88;;
30398;SDS011;17195;50.838;7.214;2022-11-20T04:33:38;19.83;;;12.23;;
30398;SDS011;17195;50.838;7.214;2022-11-20T04:36:05;18.55;;;12.07;;
30398;SDS011;17195;50.838;7.214;2022-11-20T04:38:39;19.15;;;12.32;;
30398;SDS011;17195;50.838;7.214;2022-11-20T04:41:06;18.88;;;11.48;;
30398;SDS011;17195;50.838;7.214;2022-11-20T04:43:36;19.58;;;11.73;;
30398;SDS011;17195;50.838;7.214;2022-11-20T04:46:01;20.13;;;12.20;;
30398;SDS011;17195;50.838;7.214;2022-11-20T04:48:27;19.60;;;12.45;;
30398;SDS011;17195;50.838;7.214;2022-11-20T04:50:54;21.00;;;12.13;;
30398;SDS011;17195;50.838;7.214;2022-11-20T04:53:19;18.02;;;12.35;;
30398;SDS011;17195;50.838;7.214;2022-11-20T04:55:45;16.55;;;10.90;;
30398;SDS011;17195;50.838;7.214;2022-11-20T04:58:11;20.63;;;12.43;;
30398;SDS011;17195;50.838;7.214;2022-11-20T05:00:37;19.15;;;12.18;;
30398;SDS011;17195;50.838;7.214;2022-11-20T05:03:03;21.60;;;13.20;;
30398;SDS011;17195;50.838;7.214;2022-11-20T05:05:29;16.95;;;11.25;;
30398;SDS011;17195;50.838;7.214;2022-11-20T05:07:57;19.27;;;12.00;;
30398;SDS011;17195;50.838;7.214;2022-11-20T05:10:24;18.52;;;11.73;;
30398;SDS011;17195;50.838;7.214;2022-11-20T05:12:50;21.38;;;12.82;;
30398;SDS011;17195;50.838;7.214;2022-11-20T05:15:15;18.92;;;11.88;;
30398;SDS011;17195;50.838;7.214;2022-11-20T05:17:41;20.33;;;12.65;;
30398;SDS011;17195;50.838;7.214;2022-11-20T05:20:12;18.92;;;12.07;;
30398;SDS011;17195;50.838;7.214;2022-11-20T05:22:38;21.40;;;13.13;;
30398;SDS011;17195;50.838;7.214;2022-11-20T05:25:03;20.55;;;13.40;;
30398;SDS011;17195;50.838;7.214;2022-11-20T05:27:29;19.42;;;12.60;;
30398;SDS011;17195;50.838;7.214;2022-11-20T05:29:55;19.10;;;12.13;;
30398;SDS011;17195;50.838;7.214;2022-11-20T05:32:20;19.05;;;12.48;;
30398;SDS011;17195;50.838;7.214;2022-11-20T05:34:46;20.48;;;13.57;;
30398;SDS011;17195;50.838;7.214;2022-11-20T05:37:11;19.50;;;12.82;;
30398;SDS011;17195;50.838;7.214;2022-11-20T05:39:37;20.67;;;12.43;;
30398;SDS011;17195;50.838;7.214;2022-11-20T05:42:02;21.00;;;13.05;;
30398;SDS011;17195;50.838;7.214;2022-11-20T05:44:46;20.95;;;13.43;;
30398;SDS011;17195;50.838;7.214;2022-11-20T05:47:12;19.45;;;13.10;;
30398;SDS011;17195;50.838;7.214;2022-11-20T05:49:37;21.13;;;13.23;;
30398;SDS011;17195;50.838;7.214;2022-11-20T05:52:03;23.80;;;14.15;;
30398;SDS011;17195;50.838;7.214;2022-11-20T05:54:28;22.60;;;14.30;;
30398;SDS011;17195;50.838;7.214;2022-11-20T05:56:54;21.23;;;13.70;;
30398;SDS011;17195;50.838;7.214;2022-11-20T05:59:19;23.10;;;13.73;;
30398;SDS011;17195;50.838;7.214;2022-11-20T06:01:45;22.80;;;14.43;;
30398;SDS011;17195;50.838;7.214;2022-11-20T06:04:10;22.83;;;14.10;;
30398;SDS011;17195;50.838;7.214;2022-11-20T06:06:36;25.25;;;14.93;;
30398;SDS011;17195;50.838;7.214;2022-11-20T06:09:01;25.30;;;14.27;;
30398;SDS011;17195;50.838;7.214;2022-11-20T06:11:27;22.00;;;14.20;;
30398;SDS011;17195;50.838;7.214;2022-11-20T06:13:52;23.88;;;13.95;;
30398;SDS011;17195;50.838;7.214;2022-11-20T06:16:18;23.75;;;14.23;;
30398;SDS011;17195;50.838;7.214;2022-11-20T06:18:45;23.42;;;13.30;;
30398;SDS011;17195;50.838;7.214;2022-11-20T06:21:21;21.80;;;13.65;;
30398;SDS011;17195;50.838;7.214;2022-11-20T06:23:47;21.10;;;12.50;;
30398;SDS011;17195;50.838;7.214;2022-11-20T06:26:15;22.80;;;14.20;;
30398;SDS011;17195;50.838;7.214;2022-11-20T06:28:43;20.00;;;12.77;;
30398;SDS011;17195;50.838;7.214;2022-11-20T06:31:10;23.20;;;13.10;;
30398;SDS011;17195;50.838;7.214;2022-11-20T06:33:37;19.80;;;13.05;;
30398;SDS011;17195;50.838;7.214;2022-11-20T06:36:03;21.58;;;13.15;;
30398;SDS011;17195;50.838;7.214;2022-11-20T06:38:29;22.02;;;13.05;;
30398;SDS011;17195;50.838;7.214;2022-11-20T06:40:55;19.45;;;12.57;;
30398;SDS011;17195;50.838;7.214;2022-11-20T06:43:21;25.48;;;15.43;;
30398;SDS011;17195;50.838;7.214;2022-11-20T06:45:53;23.00;;;15.55;;
30398;SDS011;17195;50.838;7.214;2022-11-20T06:48:20;21.75;;;14.25;;
30398;SDS011;17195;50.838;7.214;2022-11-20T06:50:46;19.83;;;13.18;;
30398;SDS011;17195;50.838;7.214;2022-11-20T06:53:11;24.70;;;13.05;;
30398;SDS011;17195;50.838;7.214;2022-11-20T06:55:41;21.48;;;13.63;;
30398;SDS011;17195;50.838;7.214;2022-11-20T06:58:11;21.45;;;13.52;;
30398;SDS011;17195;50.838;7.214;2022-11-20T07:00:39;20.88;;;13.73;;
30398;SDS011;17195;50.838;7.214;2022-11-20T07:03:06;21.58;;;13.82;;
30398;SDS011;17195;50.838;7.214;2022-11-20T07:05:33;22.95;;;13.80;;
30398;SDS011;17195;50.838;7.214;2022-11-20T07:07:59;20.60;;;13.57;;
30398;SDS011;17195;50.838;7.214;2022-11-20T07:10:25;20.80;;;12.48;;
30398;SDS011;17195;50.838;7.214;2022-11-20T07:12:51;21.92;;;13.15;;
30398;SDS011;17195;50.838;7.214;2022-11-20T07:15:21;22.10;;;14.13;;
30398;SDS011;17195;50.838;7.214;2022-11-20T07:17:48;19.85;;;13.68;;
30398;SDS011;17195;50.838;7.214;2022-11-20T07:20:14;22.10;;;13.63;;
30398;SDS011;17195;50.838;7.214;2022-11-20T07:22:40;20.33;;;13.43;;
30398;SDS011;17195;50.838;7.214;2022-11-20T07:25:06;24.65;;;14.30;;
30398;SDS011;17195;50.838;7.214;2022-11-20T07:27:32;23.00;;;14.43;;
30398;SDS011;17195;50.838;7.214;2022-11-20T07:29:58;23.50;;;14.00;;
30398;SDS011;17195;50.838;7.214;2022-11-20T07:32:23;21.70;;;13.02;;
30398;SDS011;17195;50.838;7.214;2022-11-20T07:34:49;20.17;;;13.68;;
30398;SDS011;17195;50.838;7.214;2022-11-20T07:37:15;21.33;;;13.75;;
30398;SDS011;17195;50.838;7.214;2022-11-20T07:39:41;21.17;;;13.07;;
30398;SDS011;17195;50.838;7.214;2022-11-20T07:42:07;22.15;;;13.55;;
30398;SDS011;17195;50.838;7.214;2022-11-20T07:44:33;23.25;;;14.35;;
30398;SDS011;17195;50.838;7.214;2022-11-20T07:46:59;22.83;;;14.55;;
30398;SDS011;17195;50.838;7.214;2022-11-20T07:49:24;25.83;;;14.98;;
30398;SDS011;17195;50.838;7.214;2022-11-20T07:51:50;21.67;;;13.38;;
30398;SDS011;17195;50.838;7.214;2022-11-20T07:54:18;23.90;;;13.98;;
30398;SDS011;17195;50.838;7.214;2022-11-20T07:56:50;22.60;;;13.80;;
30398;SDS011;17195;50.838;7.214;2022-11-20T07:59:15;22.75;;;13.30;;
30398;SDS011;17195;50.838;7.214;2022-11-20T08:01:41;22.05;;;13.60;;
30398;SDS011;17195;50.838;7.214;2022-11-20T08:04:08;23.63;;;14.35;;
30398;SDS011;17195;50.838;7.214;2022-11-20T08:06:34;21.65;;;12.65;;
30398;SDS011;17195;50.838;7.214;2022-11-20T08:09:00;21.05;;;12.80;;
30398;SDS011;17195;50.838;7.214;2022-11-20T08:11:25;23.58;;;13.50;;
30398;SDS011;17195;50.838;7.214;2022-11-20T08:14:10;23.00;;;14.02;;
30398;SDS011;17195;50.838;7.214;2022-11-20T08:16:42;26.38;;;14.20;;
30398;SDS011;17195;50.838;7.214;2022-11-20T08:19:09;24.52;;;14.20;;
30398;SDS011;17195;50.838;7.214;2022-11-20T08:21:35;23.83;;;13.95;;
30398;SDS011;17195;50.838;7.214;2022-11-20T08:24:01;26.10;;;14.40;;
30398;SDS011;17195;50.838;7.214;2022-11-20T08:26:26;25.45;;;15.40;;
30398;SDS011;17195;50.838;7.214;2022-11-20T08:28:55;28.23;;;17.13;;
30398;SDS011;17195;50.838;7.214;2022-11-20T08:31:22;29.45;;;17.38;;
30398;SDS011;17195;50.838;7.214;2022-11-20T08:33:49;27.30;;;16.13;;
30398;SDS011;17195;50.838;7.214;2022-11-20T08:36:14;30.40;;;16.42;;
30398;SDS011;17195;50.838;7.214;2022-11-20T08:38:40;28.85;;;16.30;;
30398;SDS011;17195;50.838;7.214;2022-11-20T08:41:06;28.58;;;16.20;;
30398;SDS011;17195;50.838;7.214;2022-11-20T08:43:50;30.75;;;16.75;;
30398;SDS011;17195;50.838;7.214;2022-11-20T08:46:17;24.80;;;15.15;;
30398;SDS011;17195;50.838;7.214;2022-11-20T08:48:43;26.85;;;16.15;;
30398;SDS011;17195;50.838;7.214;2022-11-20T08:51:09;24.67;;;14.70;;
30398;SDS011;17195;50.838;7.214;2022-11-20T08:53:36;27.58;;;15.75;;
30398;SDS011;17195;50.838;7.214;2022-11-20T08:56:02;28.48;;;16.48;;
30398;SDS011;17195;50.838;7.214;2022-11-20T08:58:27;29.40;;;16.75;;
30398;SDS011;17195;50.838;7.214;2022-11-20T09:00:53;34.20;;;18.77;;
30398;SDS011;17195;50.838;7.214;2022-11-20T09:03:18;34.25;;;17.33;;
30398;SDS011;17195;50.838;7.214;2022-11-20T09:05:44;28.10;;;16.60;;
30398;SDS011;17195;50.838;7.214;2022-11-20T09:08:10;30.20;;;17.25;;
30398;SDS011;17195;50.838;7.214;2022-11-20T09:10:36;29.73;;;16.90;;
30398;SDS011;17195;50.838;7.214;2022-11-20T09:13:04;27.60;;;17.70;;
30398;SDS011;17195;50.838;7.214;2022-11-20T09:15:30;32.70;;;17.33;;
30398;SDS011;17195;50.838;7.214;2022-11-20T09:18:00;29.30;;;16.05;;
30398;SDS011;17195;50.838;7.214;2022-11-20T09:20:28;27.10;;;16.50;;
30398;SDS011;17195;50.838;7.214;2022-11-20T09:22:54;31.10;;;16.70;;
30398;SDS011;17195;50.838;7.214;2022-11-20T09:25:20;28.35;;;16.88;;
30398;SDS011;17195;50.838;7.214;2022-11-20T09:27:46;29.88;;;16.75;;
30398;SDS011;17195;50.838;7.214;2022-11-20T09:30:13;29.67;;;17.55;;
30398;SDS011;17195;50.838;7.214;2022-11-20T09:32:39;25.70;;;16.13;;
30398;SDS011;17195;50.838;7.214;2022-11-20T09:35:05;26.95;;;16.42;;
30398;SDS011;17195;50.838;7.214;2022-11-20T09:37:31;30.45;;;17.23;;
30398;SDS011;17195;50.838;7.214;2022-11-20T09:39:57;25.10;;;15.88;;
30398;SDS011;17195;50.838;7.214;2022-11-20T09:42:44;31.60;;;19.05;;
30398;SDS011;17195;50.838;7.214;2022-11-20T09:56:50;57.15;;;32.67;;
30398;SDS011;17195;50.838;7.214;2022-11-20T09:59:32;175.18;;;91.90;;
30398;SDS011;17195;50.838;7.214;2022-11-20T10:02:01;129.80;;;83.10;;
30398;SDS011;17195;50.838;7.214;2022-11-20T10:04:36;42.53;;;28.42;;
30398;SDS011;17195;50.838;7.214;2022-11-20T10:07:19;30.73;;;18.83;;
30398;SDS011;17195;50.838;7.214;2022-11-20T10:10:02;27.92;;;16.10;;
30398;SDS011;17195;50.838;7.214;2022-11-20T10:12:34;31.13;;;17.95;;
30398;SDS011;17195;50.838;7.214;2022-11-20T10:15:07;27.58;;;16.83;;
30398;SDS011;17195;50.838;7.214;2022-11-20T10:26:31;30.60;;;18.95;;
30398;SDS011;17195;50.838;7.214;2022-11-20T10:29:11;29.55;;;18.45;;
30398;SDS011;17195;50.838;7.214;2022-11-20T10:31:41;27.83;;;16.83;;
30398;SDS011;17195;50.838;7.214;2022-11-20T10:34:19;27.70;;;16.25;;
30398;SDS011;17195;50.838;7.214;2022-11-20T10:36:52;28.95;;;15.25;;
30398;SDS011;17195;50.838;7.214;2022-11-20T10:48:22;29.23;;;18.48;;
30398;SDS011;17195;50.838;7.214;2022-11-20T10:53:43;25.27;;;16.05;;
30398;SDS011;17195;50.838;7.214;2022-11-20T10:56:20;25.83;;;16.02;;
30398;SDS011;17195;50.838;7.214;2022-11-20T10:58:52;27.73;;;15.57;;
30398;SDS011;17195;50.838;7.214;2022-11-20T11:01:26;24.30;;;15.23;;
30398;SDS011;17195;50.838;7.214;2022-11-20T11:03:52;23.63;;;15.57;;
30398;SDS011;17195;50.838;7.214;2022-11-20T11:06:40;27.23;;;16.00;;
30398;SDS011;17195;50.838;7.214;2022-11-20T11:09:13;27.75;;;17.33;;
30398;SDS011;17195;50.838;7.214;2022-11-20T11:11:42;25.88;;;16.40;;
30398;SDS011;17195;50.838;7.214;2022-11-20T11:14:08;23.33;;;15.00;;
30398;SDS011;17195;50.838;7.214;2022-11-20T11:16:51;27.50;;;17.30;;
30398;SDS011;17195;50.838;7.214;2022-11-20T11:19:19;25.33;;;15.25;;
30398;SDS011;17195;50.838;7.214;2022-11-20T11:21:46;26.67;;;17.73;;
30398;SDS011;17195;50.838;7.214;2022-11-20T11:24:23;28.38;;;17.60;;
30398;SDS011;17195;50.838;7.214;2022-11-20T11:26:57;30.00;;;17.15;;
30398;SDS011;17195;50.838;7.214;2022-11-20T11:29:29;26.33;;;15.77;;
30398;SDS011;17195;50.838;7.214;2022-11-20T11:32:15;27.05;;;16.00;;
30398;SDS011;17195;50.838;7.214;2022-11-20T11:34:58;29.30;;;16.60;;
30398;SDS011;17195;50.838;7.214;2022-11-20T11:37:24;26.83;;;15.10;;
30398;SDS011;17195;50.838;7.214;2022-11-20T11:39:57;28.10;;;16.98;;
30398;SDS011;17195;50.838;7.214;2022-11-20T11:42:23;25.65;;;16.10;;
30398;SDS011;17195;50.838;7.214;2022-11-20T11:44:49;28.98;;;17.65;;
30398;SDS011;17195;50.838;7.214;2022-11-20T11:55:38;25.52;;;15.32;;
30398;SDS011;17195;50.838;7.214;2022-11-20T11:58:16;25.45;;;14.95;;
30398;SDS011;17195;50.838;7.214;2022-11-20T12:00:57;45.40;;;24.80;;
30398;SDS011;17195;50.838;7.214;2022-11-20T12:03:44;26.60;;;16.23;;
30398;SDS011;17195;50.838;7.214;2022-11-20T12:06:26;26.02;;;15.23;;
30398;SDS011;17195;50.838;7.214;2022-11-20T12:08:57;28.05;;;16.92;;
30398;SDS011;17195;50.838;7.214;2022-11-20T12:14:15;23.38;;;14.63;;
30398;SDS011;17195;50.838;7.214;2022-11-20T12:16:48;26.83;;;15.73;;
30398;SDS011;17195;50.838;7.214;2022-11-20T12:19:15;23.50;;;15.20;;
30398;SDS011;17195;50.838;7.214;2022-11-20T12:21:45;27.00;;;15.07;;
30398;SDS011;17195;50.838;7.214;2022-11-20T12:29:59;34.50;;;20.75;;
30398;SDS011;17195;50.838;7.214;2022-11-20T12:35:44;31.92;;;19.55;;
30398;SDS011;17195;50.838;7.214;2022-11-20T12:38:51;25.02;;;15.93;;
30398;SDS011;17195;50.838;7.214;2022-11-20T12:45:02;25.25;;;14.15;;
30398;SDS011;17195;50.838;7.214;2022-11-20T12:53:40;22.00;;;13.52;;
30398;SDS011;17195;50.838;7.214;2022-11-20T12:59:07;23.15;;;14.35;;
30398;SDS011;17195;50.838;7.214;2022-11-20T13:01:51;25.53;;;14.90;;
30398;SDS011;17195;50.838;7.214;2022-11-20T13:07:04;24.67;;;14.85;;
30398;SDS011;17195;50.838;7.214;2022-11-20T13:09:32;24.65;;;15.60;;
30398;SDS011;17195;50.838;7.214;2022-11-20T13:12:49;23.15;;;14.77;;
30398;SDS011;17195;50.838;7.214;2022-11-20T13:15:14;23.42;;;14.38;;
30398;SDS011;17195;50.838;7.214;2022-11-20T13:18:04;23.05;;;14.43;;
30398;SDS011;17195;50.838;7.214;2022-11-20T13:20:30;26.08;;;15.75;;
30398;SDS011;17195;50.838;7.214;2022-11-20T13:22:58;28.02;;;16.00;;
30398;SDS011;17195;50.838;7.214;2022-11-20T13:25:33;26.92;;;16.08;;
30398;SDS011;17195;50.838;7.214;2022-11-20T13:28:03;21.17;;;14.45;;
30398;SDS011;17195;50.838;7.214;2022-11-20T13:30:50;21.15;;;14.10;;
30398;SDS011;17195;50.838;7.214;2022-11-20T13:33:50;24.65;;;14.75;;
30398;SDS011;17195;50.838;7.214;2022-11-20T13:36:26;23.23;;;13.52;;
30398;SDS011;17195;50.838;7.214;2022-11-20T13:38:54;25.20;;;13.25;;
30398;SDS011;17195;50.838;7.214;2022-11-20T13:44:04;26.30;;;16.05;;
30398;SDS011;17195;50.838;7.214;2022-11-20T13:46:55;22.85;;;14.60;;
30398;SDS011;17195;50.838;7.214;2022-11-20T13:49:29;23.10;;;14.90;;
30398;SDS011;17195;50.838;7.214;2022-11-20T13:52:03;24.63;;;14.25;;
30398;SDS011;17195;50.838;7.214;2022-11-20T14:00:16;23.75;;;15.02;;
30398;SDS011;17195;50.838;7.214;2022-11-20T14:02:44;27.13;;;15.68;;
30398;SDS011;17195;50.838;7.214;2022-11-20T14:05:36;23.17;;;14.63;;
30398;SDS011;17195;50.838;7.214;2022-11-20T14:08:17;23.17;;;14.75;;
30398;SDS011;17195;50.838;7.214;2022-11-20T14:11:02;24.45;;;15.70;;
30398;SDS011;17195;50.838;7.214;2022-11-20T14:16:36;24.00;;;15.80;;
30398;SDS011;17195;50.838;7.214;2022-11-20T14:21:45;22.13;;;14.05;;
30398;SDS011;17195;50.838;7.214;2022-11-20T14:24:20;19.95;;;12.93;;
30398;SDS011;17195;50.838;7.214;2022-11-20T14:26:47;19.88;;;12.68;;
30398;SDS011;17195;50.838;7.214;2022-11-20T14:29:17;18.92;;;11.88;;
30398;SDS011;17195;50.838;7.214;2022-11-20T14:31:45;24.10;;;13.45;;
30398;SDS011;17195;50.838;7.214;2022-11-20T14:34:17;21.38;;;13.80;;
30398;SDS011;17195;50.838;7.214;2022-11-20T14:36:46;19.15;;;12.50;;
30398;SDS011;17195;50.838;7.214;2022-11-20T14:39:12;21.50;;;13.13;;
30398;SDS011;17195;50.838;7.214;2022-11-20T14:41:52;21.90;;;13.70;;
30398;SDS011;17195;50.838;7.214;2022-11-20T14:44:18;26.58;;;12.95;;
30398;SDS011;17195;50.838;7.214;2022-11-20T14:46:48;23.73;;;14.77;;
30398;SDS011;17195;50.838;7.214;2022-11-20T14:49:14;21.33;;;13.77;;
30398;SDS011;17195;50.838;7.214;2022-11-20T14:51:40;23.40;;;14.77;;
30398;SDS011;17195;50.838;7.214;2022-11-20T14:56:52;31.77;;;18.20;;
30398;SDS011;17195;50.838;7.214;2022-11-20T14:59:26;26.35;;;16.23;;
30398;SDS011;17195;50.838;7.214;2022-11-20T15:02:10;22.57;;;13.87;;
30398;SDS011;17195;50.838;7.214;2022-11-20T15:04:50;23.98;;;16.52;;
30398;SDS011;17195;50.838;7.214;2022-11-20T15:07:25;28.85;;;18.33;;
30398;SDS011;17195;50.838;7.214;2022-11-20T15:12:35;21.13;;;12.57;;
30398;SDS011;17195;50.838;7.214;2022-11-20T15:15:05;23.33;;;14.55;;
30398;SDS011;17195;50.838;7.214;2022-11-20T15:17:31;23.13;;;14.10;;
30398;SDS011;17195;50.838;7.214;2022-11-20T15:20:00;27.23;;;16.65;;
30398;SDS011;17195;50.838;7.214;2022-11-20T15:22:28;27.65;;;17.20;;
30398;SDS011;17195;50.838;7.214;2022-11-20T15:24:53;26.35;;;14.60;;
30398;SDS011;17195;50.838;7.214;2022-11-20T15:27:19;20.35;;;12.85;;
30398;SDS011;17195;50.838;7.214;2022-11-20T15:29:45;21.67;;;13.45;;
30398;SDS011;17195;50.838;7.214;2022-11-20T15:32:10;23.30;;;13.70;;
30398;SDS011;17195;50.838;7.214;2022-11-20T15:34:36;22.17;;;13.15;;
30398;SDS011;17195;50.838;7.214;2022-11-20T15:37:01;23.23;;;13.73;;
30398;SDS011;17195;50.838;7.214;2022-11-20T15:39:27;24.15;;;13.15;;
30398;SDS011;17195;50.838;7.214;2022-11-20T15:41:52;25.00;;;13.15;;
30398;SDS011;17195;50.838;7.214;2022-11-20T15:44:18;21.83;;;12.55;;
30398;SDS011;17195;50.838;7.214;2022-11-20T15:46:43;22.70;;;11.57;;
30398;SDS011;17195;50.838;7.214;2022-11-20T15:49:14;24.63;;;11.68;;
30398;SDS011;17195;50.838;7.214;2022-11-20T15:51:43;25.67;;;12.65;;
30398;SDS011;17195;50.838;7.214;2022-11-20T15:54:13;24.60;;;12.35;;
30398;SDS011;17195;50.838;7.214;2022-11-20T15:56:40;22.55;;;11.50;;
30398;SDS011;17195;50.838;7.214;2022-11-20T15:59:06;24.48;;;11.70;;
30398;SDS011;17195;50.838;7.214;2022-11-20T16:01:32;27.65;;;12.43;;
30398;SDS011;17195;50.838;7.214;2022-11-20T16:03:57;22.35;;;11.48;;
30398;SDS011;17195;50.838;7.214;2022-11-20T16:06:24;19.42;;;10.65;;